sensor_id;sensor_type;location;lat;lon;timestamp;P1;durP1;ratioP1;P2;durP2;ratioP2
49890;SDS011;35780;55.568;37.492;2022-10-16T00:01:21;8.77;;;4.72;;
49890;SDS011;35780;55.568;37.492;2022-10-16T00:03:49;12.30;;;5.88;;
49890;SDS011;35780;55.568;37.492;2022-10-16T00:06:17;13.90;;;5.45;;
49890;SDS011;35780;55.568;37.492;2022-10-16T00:08:43;9.20;;;5.20;;
49890;SDS011;35780;55.568;37.492;2022-10-16T00:11:10;11.95;;;5.32;;
49890;SDS011;35780;55.568;37.492;2022-10-16T00:13:50;15.70;;;5.60;;
49890;SDS011;35780;55.568;37.492;2022-10-16T00:16:17;9.98;;;4.90;;
49890;SDS011;35780;55.568;37.492;2022-10-16T00:18:43;8.35;;;4.72;;
49890;SDS011;35780;55.568;37.492;2022-10-16T00:21:10;8.13;;;5.18;;
49890;SDS011;35780;55.568;37.492;2022-10-16T00:24:00;11.82;;;5.40;;
49890;SDS011;35780;55.568;37.492;2022-10-16T00:26:31;8.93;;;5.28;;
49890;SDS011;35780;55.568;37.492;2022-10-16T00:28:57;9.85;;;5.32;;
49890;SDS011;35780;55.568;37.492;2022-10-16T00:31:23;10.77;;;4.97;;
49890;SDS011;35780;55.568;37.492;2022-10-16T00:33:49;8.57;;;4.70;;
49890;SDS011;35780;55.568;37.492;2022-10-16T00:36:16;10.60;;;5.22;;
49890;SDS011;35780;55.568;37.492;2022-10-16T00:38:43;12.70;;;5.07;;
49890;SDS011;35780;55.568;37.492;2022-10-16T00:41:10;10.73;;;5.00;;
49890;SDS011;35780;55.568;37.492;2022-10-16T00:46:13;12.75;;;5.60;;
49890;SDS011;35780;55.568;37.492;2022-10-16T00:48:43;12.52;;;4.97;;
49890;SDS011;35780;55.568;37.492;2022-10-16T00:51:15;8.38;;;5.05;;
49890;SDS011;35780;55.568;37.492;2022-10-16T00:53:40;10.85;;;4.90;;
49890;SDS011;35780;55.568;37.492;2022-10-16T00:56:06;14.45;;;5.07;;
49890;SDS011;35780;55.568;37.492;2022-10-16T00:58:32;8.30;;;5.10;;
49890;SDS011;35780;55.568;37.492;2022-10-16T01:00:57;12.48;;;4.85;;
49890;SDS011;35780;55.568;37.492;2022-10-16T01:03:31;12.15;;;4.95;;
49890;SDS011;35780;55.568;37.492;2022-10-16T01:08:57;7.97;;;4.65;;
49890;SDS011;35780;55.568;37.492;2022-10-16T01:13:58;7.70;;;4.60;;
49890;SDS011;35780;55.568;37.492;2022-10-16T01:16:41;12.10;;;4.43;;
49890;SDS011;35780;55.568;37.492;2022-10-16T01:22:02;10.02;;;4.13;;
49890;SDS011;35780;55.568;37.492;2022-10-16T01:24:33;8.07;;;4.30;;
49890;SDS011;35780;55.568;37.492;2022-10-16T01:27:22;9.23;;;4.43;;
49890;SDS011;35780;55.568;37.492;2022-10-16T01:32:33;9.27;;;5.20;;
49890;SDS011;35780;55.568;37.492;2022-10-16T01:35:03;10.63;;;5.05;;
49890;SDS011;35780;55.568;37.492;2022-10-16T01:37:39;8.68;;;5.00;;
49890;SDS011;35780;55.568;37.492;2022-10-16T01:40:09;8.50;;;4.55;;
49890;SDS011;35780;55.568;37.492;2022-10-16T01:42:39;9.43;;;4.75;;
49890;SDS011;35780;55.568;37.492;2022-10-16T01:45:07;10.40;;;6.00;;
49890;SDS011;35780;55.568;37.492;2022-10-16T01:47:36;9.07;;;4.22;;
49890;SDS011;35780;55.568;37.492;2022-10-16T01:50:03;11.52;;;4.18;;
49890;SDS011;35780;55.568;37.492;2022-10-16T01:52:30;8.13;;;4.35;;
49890;SDS011;35780;55.568;37.492;2022-10-16T01:54:57;16.70;;;4.22;;
49890;SDS011;35780;55.568;37.492;2022-10-16T01:57:24;11.43;;;4.50;;
49890;SDS011;35780;55.568;37.492;2022-10-16T01:59:52;12.82;;;5.45;;
49890;SDS011;35780;55.568;37.492;2022-10-16T02:02:21;10.50;;;4.80;;
49890;SDS011;35780;55.568;37.492;2022-10-16T02:05:10;10.02;;;5.18;;
49890;SDS011;35780;55.568;37.492;2022-10-16T02:07:40;8.50;;;4.32;;
49890;SDS011;35780;55.568;37.492;2022-10-16T02:10:07;9.35;;;4.35;;
49890;SDS011;35780;55.568;37.492;2022-10-16T02:12:33;8.13;;;4.90;;
49890;SDS011;35780;55.568;37.492;2022-10-16T02:15:00;8.52;;;4.65;;
49890;SDS011;35780;55.568;37.492;2022-10-16T02:17:28;8.55;;;4.82;;
49890;SDS011;35780;55.568;37.492;2022-10-16T02:19:54;8.63;;;4.82;;
49890;SDS011;35780;55.568;37.492;2022-10-16T02:24:54;9.05;;;4.88;;
49890;SDS011;35780;55.568;37.492;2022-10-16T02:30:40;10.48;;;4.65;;
49890;SDS011;35780;55.568;37.492;2022-10-16T02:32:49;7.70;;;4.43;;
49890;SDS011;35780;55.568;37.492;2022-10-16T02:35:16;9.93;;;4.57;;
49890;SDS011;35780;55.568;37.492;2022-10-16T02:37:42;11.02;;;5.38;;
49890;SDS011;35780;55.568;37.492;2022-10-16T02:40:08;8.93;;;4.50;;
49890;SDS011;35780;55.568;37.492;2022-10-16T02:42:35;8.18;;;4.68;;
49890;SDS011;35780;55.568;37.492;2022-10-16T02:45:02;7.90;;;4.32;;
49890;SDS011;35780;55.568;37.492;2022-10-16T02:47:29;12.82;;;5.20;;
49890;SDS011;35780;55.568;37.492;2022-10-16T02:49:54;6.72;;;4.00;;
49890;SDS011;35780;55.568;37.492;2022-10-16T02:52:20;23.00;;;8.77;;
49890;SDS011;35780;55.568;37.492;2022-10-16T02:54:45;9.68;;;5.30;;
49890;SDS011;35780;55.568;37.492;2022-10-16T02:57:11;14.65;;;6.72;;
49890;SDS011;35780;55.568;37.492;2022-10-16T02:59:37;8.60;;;5.13;;
49890;SDS011;35780;55.568;37.492;2022-10-16T03:02:02;13.95;;;5.68;;
49890;SDS011;35780;55.568;37.492;2022-10-16T03:04:28;8.98;;;4.32;;
49890;SDS011;35780;55.568;37.492;2022-10-16T03:06:53;7.35;;;4.38;;
49890;SDS011;35780;55.568;37.492;2022-10-16T03:09:19;10.23;;;6.43;;
49890;SDS011;35780;55.568;37.492;2022-10-16T03:11:45;12.35;;;5.15;;
49890;SDS011;35780;55.568;37.492;2022-10-16T03:14:10;8.85;;;4.40;;
49890;SDS011;35780;55.568;37.492;2022-10-16T03:16:36;9.88;;;4.53;;
49890;SDS011;35780;55.568;37.492;2022-10-16T03:19:01;9.82;;;5.00;;
49890;SDS011;35780;55.568;37.492;2022-10-16T03:21:27;11.68;;;4.97;;
49890;SDS011;35780;55.568;37.492;2022-10-16T03:23:52;8.93;;;5.55;;
49890;SDS011;35780;55.568;37.492;2022-10-16T03:26:18;9.27;;;5.18;;
49890;SDS011;35780;55.568;37.492;2022-10-16T03:28:43;11.75;;;6.25;;
49890;SDS011;35780;55.568;37.492;2022-10-16T03:31:08;14.63;;;8.00;;
49890;SDS011;35780;55.568;37.492;2022-10-16T03:33:34;15.73;;;7.63;;
49890;SDS011;35780;55.568;37.492;2022-10-16T03:36:00;19.00;;;7.88;;
49890;SDS011;35780;55.568;37.492;2022-10-16T03:38:25;19.52;;;8.75;;
49890;SDS011;35780;55.568;37.492;2022-10-16T03:40:51;10.80;;;8.13;;
49890;SDS011;35780;55.568;37.492;2022-10-16T03:43:16;14.77;;;8.25;;
49890;SDS011;35780;55.568;37.492;2022-10-16T03:45:42;14.65;;;8.70;;
49890;SDS011;35780;55.568;37.492;2022-10-16T03:48:08;14.63;;;9.38;;
49890;SDS011;35780;55.568;37.492;2022-10-16T03:50:33;18.38;;;7.85;;
49890;SDS011;35780;55.568;37.492;2022-10-16T03:52:59;16.27;;;7.82;;
49890;SDS011;35780;55.568;37.492;2022-10-16T03:55:24;12.63;;;7.63;;
49890;SDS011;35780;55.568;37.492;2022-10-16T03:57:50;21.08;;;8.90;;
49890;SDS011;35780;55.568;37.492;2022-10-16T04:00:15;13.32;;;8.10;;
49890;SDS011;35780;55.568;37.492;2022-10-16T04:02:41;17.63;;;8.57;;
49890;SDS011;35780;55.568;37.492;2022-10-16T04:05:06;14.45;;;7.88;;
49890;SDS011;35780;55.568;37.492;2022-10-16T04:07:32;14.05;;;8.55;;
49890;SDS011;35780;55.568;37.492;2022-10-16T04:09:58;17.63;;;7.55;;
49890;SDS011;35780;55.568;37.492;2022-10-16T04:12:24;11.23;;;6.78;;
49890;SDS011;35780;55.568;37.492;2022-10-16T04:14:50;22.95;;;6.82;;
49890;SDS011;35780;55.568;37.492;2022-10-16T04:17:16;12.57;;;6.70;;
49890;SDS011;35780;55.568;37.492;2022-10-16T04:19:41;13.18;;;7.55;;
49890;SDS011;35780;55.568;37.492;2022-10-16T04:22:07;15.68;;;7.10;;
49890;SDS011;35780;55.568;37.492;2022-10-16T04:24:32;14.00;;;6.07;;
49890;SDS011;35780;55.568;37.492;2022-10-16T04:26:58;16.95;;;6.63;;
49890;SDS011;35780;55.568;37.492;2022-10-16T04:29:24;12.63;;;5.93;;
49890;SDS011;35780;55.568;37.492;2022-10-16T04:31:49;10.18;;;4.68;;
49890;SDS011;35780;55.568;37.492;2022-10-16T04:34:14;10.00;;;5.63;;
49890;SDS011;35780;55.568;37.492;2022-10-16T04:36:40;14.15;;;5.80;;
49890;SDS011;35780;55.568;37.492;2022-10-16T04:39:05;11.05;;;5.35;;
49890;SDS011;35780;55.568;37.492;2022-10-16T04:41:31;15.48;;;5.40;;
49890;SDS011;35780;55.568;37.492;2022-10-16T04:43:56;10.93;;;6.25;;
49890;SDS011;35780;55.568;37.492;2022-10-16T04:46:22;14.10;;;6.50;;
49890;SDS011;35780;55.568;37.492;2022-10-16T04:48:47;11.80;;;5.03;;
49890;SDS011;35780;55.568;37.492;2022-10-16T04:51:13;9.13;;;5.18;;
49890;SDS011;35780;55.568;37.492;2022-10-16T04:53:39;13.88;;;7.25;;
49890;SDS011;35780;55.568;37.492;2022-10-16T04:56:04;14.82;;;5.15;;
49890;SDS011;35780;55.568;37.492;2022-10-16T04:58:30;16.23;;;6.13;;
49890;SDS011;35780;55.568;37.492;2022-10-16T05:00:55;12.05;;;4.85;;
49890;SDS011;35780;55.568;37.492;2022-10-16T05:03:21;11.77;;;6.30;;
49890;SDS011;35780;55.568;37.492;2022-10-16T05:05:46;12.35;;;4.90;;
49890;SDS011;35780;55.568;37.492;2022-10-16T05:08:13;15.95;;;5.70;;
49890;SDS011;35780;55.568;37.492;2022-10-16T05:10:40;14.32;;;5.25;;
49890;SDS011;35780;55.568;37.492;2022-10-16T05:13:06;14.38;;;6.32;;
49890;SDS011;35780;55.568;37.492;2022-10-16T05:15:32;21.23;;;7.20;;
49890;SDS011;35780;55.568;37.492;2022-10-16T05:17:58;22.05;;;6.78;;
49890;SDS011;35780;55.568;37.492;2022-10-16T05:20:23;12.00;;;5.47;;
49890;SDS011;35780;55.568;37.492;2022-10-16T05:22:49;29.20;;;10.98;;
49890;SDS011;35780;55.568;37.492;2022-10-16T05:25:14;13.57;;;5.95;;
49890;SDS011;35780;55.568;37.492;2022-10-16T05:27:40;13.15;;;5.00;;
49890;SDS011;35780;55.568;37.492;2022-10-16T05:30:06;8.13;;;4.60;;
49890;SDS011;35780;55.568;37.492;2022-10-16T05:32:32;17.75;;;6.68;;
49890;SDS011;35780;55.568;37.492;2022-10-16T05:34:58;12.27;;;6.00;;
49890;SDS011;35780;55.568;37.492;2022-10-16T05:37:25;13.13;;;5.63;;
49890;SDS011;35780;55.568;37.492;2022-10-16T05:39:52;12.23;;;4.80;;
49890;SDS011;35780;55.568;37.492;2022-10-16T05:42:17;11.73;;;5.75;;
49890;SDS011;35780;55.568;37.492;2022-10-16T05:44:44;11.40;;;5.47;;
49890;SDS011;35780;55.568;37.492;2022-10-16T05:47:09;13.77;;;5.82;;
49890;SDS011;35780;55.568;37.492;2022-10-16T05:49:35;17.88;;;6.03;;
49890;SDS011;35780;55.568;37.492;2022-10-16T05:52:01;17.08;;;6.65;;
49890;SDS011;35780;55.568;37.492;2022-10-16T05:54:27;16.08;;;6.90;;
49890;SDS011;35780;55.568;37.492;2022-10-16T05:56:52;12.20;;;5.13;;
49890;SDS011;35780;55.568;37.492;2022-10-16T05:59:18;17.42;;;7.25;;
49890;SDS011;35780;55.568;37.492;2022-10-16T06:01:43;19.13;;;7.13;;
49890;SDS011;35780;55.568;37.492;2022-10-16T06:04:09;18.83;;;6.75;;
49890;SDS011;35780;55.568;37.492;2022-10-16T06:06:34;10.30;;;5.00;;
49890;SDS011;35780;55.568;37.492;2022-10-16T06:09:01;19.10;;;5.65;;
49890;SDS011;35780;55.568;37.492;2022-10-16T06:11:28;15.05;;;6.72;;
49890;SDS011;35780;55.568;37.492;2022-10-16T06:13:56;12.65;;;6.68;;
49890;SDS011;35780;55.568;37.492;2022-10-16T06:16:22;11.30;;;5.90;;
49890;SDS011;35780;55.568;37.492;2022-10-16T06:18:50;15.57;;;6.03;;
49890;SDS011;35780;55.568;37.492;2022-10-16T06:21:17;23.63;;;6.22;;
49890;SDS011;35780;55.568;37.492;2022-10-16T06:23:45;12.88;;;5.88;;
49890;SDS011;35780;55.568;37.492;2022-10-16T06:26:12;10.85;;;5.78;;
49890;SDS011;35780;55.568;37.492;2022-10-16T06:28:39;10.52;;;4.50;;
49890;SDS011;35780;55.568;37.492;2022-10-16T06:31:05;12.30;;;6.00;;
49890;SDS011;35780;55.568;37.492;2022-10-16T06:33:31;20.65;;;6.75;;
49890;SDS011;35780;55.568;37.492;2022-10-16T06:36:18;11.27;;;5.60;;
49890;SDS011;35780;55.568;37.492;2022-10-16T06:38:43;17.00;;;6.68;;
49890;SDS011;35780;55.568;37.492;2022-10-16T06:41:10;20.85;;;7.22;;
49890;SDS011;35780;55.568;37.492;2022-10-16T06:43:37;13.73;;;5.57;;
49890;SDS011;35780;55.568;37.492;2022-10-16T06:46:03;15.25;;;5.50;;
49890;SDS011;35780;55.568;37.492;2022-10-16T06:48:30;12.20;;;5.50;;
49890;SDS011;35780;55.568;37.492;2022-10-16T06:53:22;12.68;;;4.47;;
49890;SDS011;35780;55.568;37.492;2022-10-16T06:55:47;12.68;;;5.40;;
49890;SDS011;35780;55.568;37.492;2022-10-16T06:58:13;14.05;;;5.35;;
49890;SDS011;35780;55.568;37.492;2022-10-16T07:00:38;15.55;;;5.43;;
49890;SDS011;35780;55.568;37.492;2022-10-16T07:03:04;16.35;;;5.47;;
49890;SDS011;35780;55.568;37.492;2022-10-16T07:05:29;18.23;;;6.75;;
49890;SDS011;35780;55.568;37.492;2022-10-16T07:07:55;11.95;;;5.13;;
49890;SDS011;35780;55.568;37.492;2022-10-16T07:10:20;19.23;;;6.22;;
49890;SDS011;35780;55.568;37.492;2022-10-16T07:12:49;12.63;;;5.03;;
49890;SDS011;35780;55.568;37.492;2022-10-16T07:15:15;14.93;;;5.72;;
49890;SDS011;35780;55.568;37.492;2022-10-16T07:17:40;16.08;;;4.80;;
49890;SDS011;35780;55.568;37.492;2022-10-16T07:20:06;13.07;;;5.10;;
49890;SDS011;35780;55.568;37.492;2022-10-16T07:22:32;11.00;;;6.03;;
49890;SDS011;35780;55.568;37.492;2022-10-16T07:24:57;15.77;;;5.88;;
49890;SDS011;35780;55.568;37.492;2022-10-16T07:27:23;9.43;;;5.15;;
49890;SDS011;35780;55.568;37.492;2022-10-16T07:29:49;24.15;;;6.05;;
49890;SDS011;35780;55.568;37.492;2022-10-16T07:32:15;16.92;;;5.55;;
49890;SDS011;35780;55.568;37.492;2022-10-16T07:34:40;16.60;;;5.63;;
49890;SDS011;35780;55.568;37.492;2022-10-16T07:37:07;17.48;;;4.88;;
49890;SDS011;35780;55.568;37.492;2022-10-16T07:39:32;16.80;;;6.03;;
49890;SDS011;35780;55.568;37.492;2022-10-16T07:41:58;11.63;;;3.92;;
49890;SDS011;35780;55.568;37.492;2022-10-16T07:44:24;15.48;;;4.72;;
49890;SDS011;35780;55.568;37.492;2022-10-16T07:46:49;14.57;;;4.82;;
49890;SDS011;35780;55.568;37.492;2022-10-16T07:49:15;13.35;;;4.75;;
49890;SDS011;35780;55.568;37.492;2022-10-16T07:51:40;17.85;;;4.80;;
49890;SDS011;35780;55.568;37.492;2022-10-16T07:54:07;18.63;;;5.30;;
49890;SDS011;35780;55.568;37.492;2022-10-16T07:56:33;14.10;;;4.90;;
49890;SDS011;35780;55.568;37.492;2022-10-16T07:58:59;11.93;;;4.25;;
49890;SDS011;35780;55.568;37.492;2022-10-16T08:01:24;21.42;;;4.57;;
49890;SDS011;35780;55.568;37.492;2022-10-16T08:03:50;11.90;;;4.43;;
49890;SDS011;35780;55.568;37.492;2022-10-16T08:06:17;18.33;;;4.97;;
49890;SDS011;35780;55.568;37.492;2022-10-16T08:08:43;19.40;;;4.90;;
49890;SDS011;35780;55.568;37.492;2022-10-16T08:11:09;11.60;;;5.22;;
49890;SDS011;35780;55.568;37.492;2022-10-16T08:13:34;13.27;;;5.90;;
49890;SDS011;35780;55.568;37.492;2022-10-16T08:16:00;13.73;;;4.95;;
49890;SDS011;35780;55.568;37.492;2022-10-16T08:18:26;15.63;;;6.10;;
49890;SDS011;35780;55.568;37.492;2022-10-16T08:20:58;14.32;;;4.85;;
49890;SDS011;35780;55.568;37.492;2022-10-16T08:23:25;15.57;;;4.95;;
49890;SDS011;35780;55.568;37.492;2022-10-16T08:25:52;11.75;;;4.07;;
49890;SDS011;35780;55.568;37.492;2022-10-16T08:28:19;22.30;;;5.43;;
49890;SDS011;35780;55.568;37.492;2022-10-16T08:30:44;16.23;;;5.03;;
49890;SDS011;35780;55.568;37.492;2022-10-16T08:33:10;13.98;;;4.40;;
49890;SDS011;35780;55.568;37.492;2022-10-16T08:35:36;13.77;;;4.90;;
49890;SDS011;35780;55.568;37.492;2022-10-16T08:38:04;18.50;;;6.85;;
49890;SDS011;35780;55.568;37.492;2022-10-16T08:40:31;18.10;;;5.07;;
49890;SDS011;35780;55.568;37.492;2022-10-16T08:50:49;16.05;;;4.22;;
49890;SDS011;35780;55.568;37.492;2022-10-16T08:53:18;15.73;;;3.90;;
49890;SDS011;35780;55.568;37.492;2022-10-16T08:55:52;12.93;;;4.68;;
49890;SDS011;35780;55.568;37.492;2022-10-16T08:58:22;13.10;;;4.60;;
49890;SDS011;35780;55.568;37.492;2022-10-16T09:01:35;14.27;;;3.97;;
49890;SDS011;35780;55.568;37.492;2022-10-16T09:09:41;10.23;;;3.65;;
49890;SDS011;35780;55.568;37.492;2022-10-16T09:12:39;10.23;;;3.08;;
49890;SDS011;35780;55.568;37.492;2022-10-16T09:23:50;8.68;;;2.75;;
49890;SDS011;35780;55.568;37.492;2022-10-16T09:26:16;10.38;;;4.50;;
49890;SDS011;35780;55.568;37.492;2022-10-16T09:28:43;10.30;;;4.30;;
49890;SDS011;35780;55.568;37.492;2022-10-16T09:31:15;14.27;;;5.82;;
49890;SDS011;35780;55.568;37.492;2022-10-16T09:33:43;19.60;;;5.22;;
49890;SDS011;35780;55.568;37.492;2022-10-16T09:36:10;12.75;;;3.95;;
49890;SDS011;35780;55.568;37.492;2022-10-16T09:38:37;5.88;;;3.33;;
49890;SDS011;35780;55.568;37.492;2022-10-16T09:41:23;14.85;;;3.90;;
49890;SDS011;35780;55.568;37.492;2022-10-16T09:43:59;9.43;;;3.53;;
49890;SDS011;35780;55.568;37.492;2022-10-16T09:46:31;5.18;;;2.83;;
49890;SDS011;35780;55.568;37.492;2022-10-16T09:49:00;9.50;;;3.53;;
49890;SDS011;35780;55.568;37.492;2022-10-16T09:51:30;16.40;;;4.50;;
49890;SDS011;35780;55.568;37.492;2022-10-16T09:56:31;13.52;;;3.90;;
49890;SDS011;35780;55.568;37.492;2022-10-16T09:58:59;6.10;;;3.28;;
49890;SDS011;35780;55.568;37.492;2022-10-16T10:01:29;7.75;;;2.88;;
49890;SDS011;35780;55.568;37.492;2022-10-16T10:03:57;11.63;;;3.95;;
49890;SDS011;35780;55.568;37.492;2022-10-16T10:06:31;7.22;;;2.83;;
49890;SDS011;35780;55.568;37.492;2022-10-16T10:09:03;12.82;;;4.93;;
49890;SDS011;35780;55.568;37.492;2022-10-16T10:11:37;15.48;;;5.05;;
49890;SDS011;35780;55.568;37.492;2022-10-16T10:16:49;6.18;;;2.72;;
49890;SDS011;35780;55.568;37.492;2022-10-16T10:19:23;12.60;;;3.35;;
49890;SDS011;35780;55.568;37.492;2022-10-16T10:21:49;9.95;;;3.05;;
49890;SDS011;35780;55.568;37.492;2022-10-16T10:24:16;10.15;;;3.42;;
49890;SDS011;35780;55.568;37.492;2022-10-16T10:26:45;12.85;;;4.00;;
49890;SDS011;35780;55.568;37.492;2022-10-16T10:35:25;4.63;;;1.92;;
49890;SDS011;35780;55.568;37.492;2022-10-16T10:38:06;7.10;;;3.15;;
49890;SDS011;35780;55.568;37.492;2022-10-16T10:40:50;5.82;;;2.63;;
49890;SDS011;35780;55.568;37.492;2022-10-16T10:43:21;8.82;;;2.72;;
49890;SDS011;35780;55.568;37.492;2022-10-16T10:45:54;4.35;;;2.47;;
49890;SDS011;35780;55.568;37.492;2022-10-16T10:48:33;9.63;;;2.70;;
49890;SDS011;35780;55.568;37.492;2022-10-16T10:51:08;10.18;;;3.22;;
49890;SDS011;35780;55.568;37.492;2022-10-16T10:56:56;12.30;;;4.53;;
49890;SDS011;35780;55.568;37.492;2022-10-16T11:07:31;12.30;;;4.07;;
49890;SDS011;35780;55.568;37.492;2022-10-16T11:10:03;5.88;;;3.30;;
49890;SDS011;35780;55.568;37.492;2022-10-16T11:12:42;8.75;;;3.17;;
49890;SDS011;35780;55.568;37.492;2022-10-16T11:15:29;3.30;;;2.08;;
49890;SDS011;35780;55.568;37.492;2022-10-16T11:18:06;9.15;;;3.38;;
49890;SDS011;35780;55.568;37.492;2022-10-16T11:20:34;7.05;;;2.85;;
49890;SDS011;35780;55.568;37.492;2022-10-16T11:23:14;10.33;;;3.07;;
49890;SDS011;35780;55.568;37.492;2022-10-16T11:26:02;6.85;;;2.95;;
49890;SDS011;35780;55.568;37.492;2022-10-16T11:31:03;6.90;;;2.83;;
49890;SDS011;35780;55.568;37.492;2022-10-16T11:33:41;6.28;;;3.03;;
49890;SDS011;35780;55.568;37.492;2022-10-16T11:36:26;7.70;;;2.72;;
49890;SDS011;35780;55.568;37.492;2022-10-16T11:39:06;6.18;;;2.80;;
49890;SDS011;35780;55.568;37.492;2022-10-16T11:41:50;5.82;;;2.60;;
49890;SDS011;35780;55.568;37.492;2022-10-16T11:49:50;4.43;;;2.65;;
49890;SDS011;35780;55.568;37.492;2022-10-16T11:52:33;6.45;;;2.33;;
49890;SDS011;35780;55.568;37.492;2022-10-16T11:55:23;6.15;;;2.40;;
49890;SDS011;35780;55.568;37.492;2022-10-16T12:01:36;6.25;;;2.65;;
49890;SDS011;35780;55.568;37.492;2022-10-16T12:06:51;7.90;;;2.97;;
49890;SDS011;35780;55.568;37.492;2022-10-16T12:09:31;5.20;;;2.80;;
49890;SDS011;35780;55.568;37.492;2022-10-16T12:11:58;5.35;;;2.97;;
49890;SDS011;35780;55.568;37.492;2022-10-16T12:16:56;8.13;;;3.10;;
49890;SDS011;35780;55.568;37.492;2022-10-16T12:19:27;13.43;;;3.35;;
49890;SDS011;35780;55.568;37.492;2022-10-16T12:21:55;8.05;;;3.10;;
49890;SDS011;35780;55.568;37.492;2022-10-16T12:27:28;18.90;;;7.97;;
49890;SDS011;35780;55.568;37.492;2022-10-16T12:29:58;13.40;;;5.22;;
49890;SDS011;35780;55.568;37.492;2022-10-16T12:32:30;6.95;;;3.20;;
49890;SDS011;35780;55.568;37.492;2022-10-16T12:34:58;9.40;;;5.20;;
49890;SDS011;35780;55.568;37.492;2022-10-16T12:37:26;11.68;;;4.50;;
49890;SDS011;35780;55.568;37.492;2022-10-16T12:39:53;11.90;;;4.00;;
49890;SDS011;35780;55.568;37.492;2022-10-16T12:44:51;25.00;;;4.38;;
49890;SDS011;35780;55.568;37.492;2022-10-16T12:50:03;8.55;;;4.07;;
49890;SDS011;35780;55.568;37.492;2022-10-16T12:52:47;7.90;;;3.38;;
49890;SDS011;35780;55.568;37.492;2022-10-16T12:55:16;10.13;;;3.75;;
49890;SDS011;35780;55.568;37.492;2022-10-16T13:00:32;6.53;;;2.85;;
49890;SDS011;35780;55.568;37.492;2022-10-16T13:30:28;9.05;;;3.40;;
49890;SDS011;35780;55.568;37.492;2022-10-16T13:33:17;9.00;;;3.92;;
49890;SDS011;35780;55.568;37.492;2022-10-16T13:35:55;14.20;;;4.45;;
49890;SDS011;35780;55.568;37.492;2022-10-16T13:38:29;10.48;;;4.13;;
49890;SDS011;35780;55.568;37.492;2022-10-16T13:40:58;10.77;;;4.00;;
49890;SDS011;35780;55.568;37.492;2022-10-16T13:43:32;10.80;;;3.40;;
49890;SDS011;35780;55.568;37.492;2022-10-16T13:46:03;10.52;;;4.10;;
49890;SDS011;35780;55.568;37.492;2022-10-16T13:48:37;9.93;;;4.20;;
49890;SDS011;35780;55.568;37.492;2022-10-16T13:53:39;13.77;;;3.60;;
49890;SDS011;35780;55.568;37.492;2022-10-16T13:56:06;11.88;;;4.13;;
49890;SDS011;35780;55.568;37.492;2022-10-16T13:58:35;12.68;;;4.55;;
49890;SDS011;35780;55.568;37.492;2022-10-16T14:01:05;10.65;;;4.20;;
49890;SDS011;35780;55.568;37.492;2022-10-16T14:03:39;14.35;;;5.78;;
49890;SDS011;35780;55.568;37.492;2022-10-16T14:06:06;14.48;;;4.45;;
49890;SDS011;35780;55.568;37.492;2022-10-16T14:08:40;13.55;;;5.13;;
49890;SDS011;35780;55.568;37.492;2022-10-16T14:11:08;10.00;;;4.53;;
49890;SDS011;35780;55.568;37.492;2022-10-16T14:13:36;19.40;;;6.90;;
49890;SDS011;35780;55.568;37.492;2022-10-16T14:16:10;14.50;;;7.93;;
49890;SDS011;35780;55.568;37.492;2022-10-16T14:18:37;21.15;;;8.70;;
49890;SDS011;35780;55.568;37.492;2022-10-16T14:21:04;15.10;;;5.90;;
49890;SDS011;35780;55.568;37.492;2022-10-16T14:23:36;13.45;;;6.18;;
49890;SDS011;35780;55.568;37.492;2022-10-16T14:26:22;15.20;;;6.18;;
49890;SDS011;35780;55.568;37.492;2022-10-16T14:29:01;15.25;;;7.05;;
49890;SDS011;35780;55.568;37.492;2022-10-16T14:31:40;10.85;;;5.45;;
49890;SDS011;35780;55.568;37.492;2022-10-16T14:36:58;19.77;;;8.32;;
49890;SDS011;35780;55.568;37.492;2022-10-16T14:39:34;9.27;;;5.80;;
49890;SDS011;35780;55.568;37.492;2022-10-16T14:42:00;14.45;;;6.60;;
49890;SDS011;35780;55.568;37.492;2022-10-16T14:44:27;22.23;;;8.50;;
49890;SDS011;35780;55.568;37.492;2022-10-16T14:46:55;22.98;;;7.82;;
49890;SDS011;35780;55.568;37.492;2022-10-16T14:49:20;22.58;;;8.27;;
49890;SDS011;35780;55.568;37.492;2022-10-16T14:51:47;11.48;;;6.82;;
49890;SDS011;35780;55.568;37.492;2022-10-16T14:54:13;14.95;;;4.85;;
49890;SDS011;35780;55.568;37.492;2022-10-16T14:59:21;13.45;;;5.43;;
49890;SDS011;35780;55.568;37.492;2022-10-16T15:01:48;14.30;;;5.47;;
49890;SDS011;35780;55.568;37.492;2022-10-16T15:04:14;15.82;;;6.57;;
49890;SDS011;35780;55.568;37.492;2022-10-16T15:06:41;12.20;;;6.18;;
49890;SDS011;35780;55.568;37.492;2022-10-16T15:09:07;9.85;;;5.07;;
49890;SDS011;35780;55.568;37.492;2022-10-16T15:11:33;16.27;;;8.35;;
49890;SDS011;35780;55.568;37.492;2022-10-16T15:13:59;22.15;;;7.18;;
49890;SDS011;35780;55.568;37.492;2022-10-16T15:16:24;17.83;;;7.22;;
49890;SDS011;35780;55.568;37.492;2022-10-16T15:18:50;15.75;;;7.55;;
49890;SDS011;35780;55.568;37.492;2022-10-16T15:21:24;10.32;;;6.10;;
49890;SDS011;35780;55.568;37.492;2022-10-16T15:23:54;11.38;;;6.85;;
49890;SDS011;35780;55.568;37.492;2022-10-16T15:26:21;19.08;;;7.10;;
49890;SDS011;35780;55.568;37.492;2022-10-16T15:28:48;15.63;;;7.05;;
49890;SDS011;35780;55.568;37.492;2022-10-16T15:31:13;10.65;;;5.15;;
49890;SDS011;35780;55.568;37.492;2022-10-16T15:33:39;19.15;;;6.57;;
49890;SDS011;35780;55.568;37.492;2022-10-16T15:36:04;19.58;;;6.10;;
49890;SDS011;35780;55.568;37.492;2022-10-16T15:38:30;14.45;;;6.40;;
49890;SDS011;35780;55.568;37.492;2022-10-16T15:40:56;20.20;;;6.93;;
49890;SDS011;35780;55.568;37.492;2022-10-16T15:43:21;13.13;;;6.25;;
49890;SDS011;35780;55.568;37.492;2022-10-16T15:45:52;16.23;;;6.32;;
49890;SDS011;35780;55.568;37.492;2022-10-16T15:48:34;14.63;;;6.43;;
49890;SDS011;35780;55.568;37.492;2022-10-16T15:50:59;21.35;;;5.97;;
49890;SDS011;35780;55.568;37.492;2022-10-16T15:53:25;12.68;;;5.97;;
49890;SDS011;35780;55.568;37.492;2022-10-16T15:55:51;18.20;;;5.20;;
49890;SDS011;35780;55.568;37.492;2022-10-16T15:58:16;18.80;;;5.88;;
49890;SDS011;35780;55.568;37.492;2022-10-16T16:00:42;16.42;;;5.30;;
49890;SDS011;35780;55.568;37.492;2022-10-16T16:03:07;12.35;;;5.60;;
49890;SDS011;35780;55.568;37.492;2022-10-16T16:05:37;19.92;;;5.50;;
49890;SDS011;35780;55.568;37.492;2022-10-16T16:08:03;20.23;;;5.97;;
49890;SDS011;35780;55.568;37.492;2022-10-16T16:10:28;9.90;;;5.65;;
49890;SDS011;35780;55.568;37.492;2022-10-16T16:12:54;22.67;;;7.28;;
49890;SDS011;35780;55.568;37.492;2022-10-16T16:15:20;17.00;;;6.20;;
49890;SDS011;35780;55.568;37.492;2022-10-16T16:17:46;12.05;;;5.50;;
49890;SDS011;35780;55.568;37.492;2022-10-16T16:20:12;16.10;;;6.07;;
49890;SDS011;35780;55.568;37.492;2022-10-16T16:22:37;14.98;;;5.97;;
49890;SDS011;35780;55.568;37.492;2022-10-16T16:25:03;18.42;;;5.35;;
49890;SDS011;35780;55.568;37.492;2022-10-16T16:27:29;12.27;;;6.18;;
49890;SDS011;35780;55.568;37.492;2022-10-16T16:29:58;12.65;;;6.00;;
49890;SDS011;35780;55.568;37.492;2022-10-16T16:32:24;15.90;;;6.82;;
49890;SDS011;35780;55.568;37.492;2022-10-16T16:34:50;13.57;;;6.00;;
49890;SDS011;35780;55.568;37.492;2022-10-16T16:37:16;14.98;;;6.47;;
49890;SDS011;35780;55.568;37.492;2022-10-16T16:39:41;13.63;;;6.57;;
49890;SDS011;35780;55.568;37.492;2022-10-16T16:42:07;21.65;;;7.18;;
49890;SDS011;35780;55.568;37.492;2022-10-16T16:44:33;19.27;;;6.78;;